createdAt,value
2019-03-28T00:00:52.350Z,8.91
2019-03-28T00:03:27.961Z,8.88
2019-03-28T00:06:02.082Z,8.84
2019-03-28T00:08:35.646Z,8.80
2019-03-28T00:11:10.691Z,8.71
2019-03-28T00:15:52.664Z,8.62
2019-03-28T00:18:28.248Z,8.60
2019-03-28T00:21:03.796Z,8.63
2019-03-28T00:24:03.699Z,8.68
2019-03-28T00:26:39.297Z,8.65
2019-03-28T00:29:14.668Z,8.67
2019-03-28T00:31:50.300Z,8.59
2019-03-28T00:34:25.701Z,8.59
2019-03-28T00:37:01.394Z,8.54
2019-03-28T00:39:36.711Z,8.60
2019-03-28T00:42:12.293Z,8.62
2019-03-28T00:45:09.727Z,8.55
2019-03-28T00:47:43.619Z,8.55
2019-03-28T00:50:19.305Z,8.55
2019-03-28T00:52:54.697Z,8.51
2019-03-28T00:55:30.301Z,8.41
2019-03-28T00:58:05.704Z,8.47
2019-03-28T01:00:41.291Z,8.57
2019-03-28T01:03:16.893Z,8.58
2019-03-28T01:05:50.648Z,8.59
2019-03-28T01:08:26.963Z,8.71
2019-03-28T01:11:02.307Z,8.71
2019-03-28T01:13:37.739Z,8.78
2019-03-28T01:16:13.300Z,8.78
2019-03-28T01:18:48.733Z,8.70
2019-03-28T01:21:24.314Z,8.60
2019-03-28T01:23:59.718Z,8.59
2019-03-28T01:26:35.301Z,8.47
2019-03-28T01:29:10.727Z,8.34
2019-03-28T01:31:46.284Z,8.32
2019-03-28T01:34:21.692Z,8.27
2019-03-28T01:36:57.292Z,8.41
2019-03-28T01:39:32.662Z,8.41
2019-03-28T01:42:08.301Z,8.50
2019-03-28T01:44:43.740Z,8.36
2019-03-28T01:48:14.358Z,8.46
2019-03-28T01:50:49.990Z,8.47
2019-03-28T01:53:25.742Z,8.58
2019-03-28T01:55:59.621Z,8.58
2019-03-28T01:58:34.757Z,8.52
2019-03-28T02:01:10.291Z,8.44
2019-03-28T02:03:45.727Z,8.53
2019-03-28T02:06:41.367Z,8.63
2019-03-28T02:09:16.915Z,8.50
2019-03-28T02:11:52.385Z,8.42
2019-03-28T02:14:27.889Z,8.42
2019-03-28T02:17:01.740Z,8.32
2019-03-28T02:19:36.958Z,8.45
2019-03-28T02:22:12.402Z,8.60
2019-03-28T02:24:47.717Z,8.60
2019-03-28T02:27:24.643Z,8.56
2019-03-28T02:29:58.608Z,8.45
2019-03-28T02:32:34.213Z,8.51
2019-03-28T02:36:51.641Z,8.48
2019-03-28T02:39:27.299Z,8.48
2019-03-28T02:42:02.743Z,8.33
2019-03-28T02:44:38.290Z,8.23
2019-03-28T02:47:13.775Z,8.10
2019-03-28T02:49:47.631Z,8.10
2019-03-28T02:52:23.966Z,7.98
2019-03-28T02:54:59.375Z,7.93
2019-03-28T02:57:41.692Z,7.93
2019-03-28T03:02:23.341Z,8.04
2019-03-28T03:04:58.715Z,8.03
2019-03-28T03:07:32.439Z,8.08
2019-03-28T03:10:09.153Z,8.05
2019-03-28T03:12:44.712Z,7.99
2019-03-28T03:15:20.299Z,8.07
2019-03-28T03:17:55.825Z,8.09
2019-03-28T03:20:29.634Z,8.03
2019-03-28T03:23:04.960Z,8.06
2019-03-28T03:25:40.434Z,7.84
2019-03-28T03:28:15.710Z,7.84
2019-03-28T03:30:51.368Z,7.97
2019-03-28T03:33:26.699Z,7.94
2019-03-28T03:36:02.286Z,7.83
2019-03-28T03:38:37.706Z,7.79
2019-03-28T03:41:13.287Z,7.79
2019-03-28T03:43:49.673Z,7.86
2019-03-28T03:46:25.302Z,7.85
2019-03-28T03:51:04.881Z,7.87
2019-03-28T03:53:38.589Z,7.87
2019-03-28T03:56:13.681Z,7.87
2019-03-28T03:58:49.284Z,7.94
2019-03-28T04:01:24.718Z,7.98
2019-03-28T04:03:58.625Z,7.95
2019-03-28T04:06:33.724Z,7.99
2019-03-28T04:09:10.259Z,8.01
2019-03-28T04:11:45.720Z,8.01
2019-03-28T04:14:21.294Z,8.07
2019-03-28T04:16:56.707Z,8.02
2019-03-28T04:19:32.473Z,8.06
2019-03-28T04:22:07.934Z,8.05
2019-03-28T04:24:43.285Z,8.16
2019-03-28T04:27:18.700Z,8.25
2019-03-28T04:29:52.589Z,8.23
2019-03-28T04:32:28.736Z,8.28
2019-03-28T04:35:04.284Z,8.28
2019-03-28T04:37:40.693Z,8.25
2019-03-28T04:40:16.298Z,8.25
2019-03-28T04:42:51.940Z,8.24
2019-03-28T04:45:27.288Z,8.24
2019-03-28T04:48:02.732Z,8.29
2019-03-28T04:50:39.275Z,8.29
2019-03-28T04:53:14.744Z,8.32
2019-03-28T04:55:50.289Z,8.37
2019-03-28T04:58:25.679Z,8.37
2019-03-28T05:01:01.285Z,8.28
2019-03-28T05:03:36.673Z,8.30
2019-03-28T05:06:12.280Z,8.20
2019-03-28T05:08:47.674Z,8.15
2019-03-28T05:11:22.945Z,8.15
2019-03-28T05:13:58.280Z,8.21
2019-03-28T05:16:33.701Z,8.23
2019-03-28T05:19:09.280Z,8.27
2019-03-28T05:21:44.945Z,8.30
2019-03-28T05:24:18.668Z,8.24
2019-03-28T05:26:53.738Z,8.22
2019-03-28T05:29:29.286Z,8.28
2019-03-28T05:32:04.711Z,8.28
2019-03-28T05:34:40.248Z,8.32
2019-03-28T05:37:15.706Z,8.28
2019-03-28T05:39:51.252Z,8.29
2019-03-28T05:42:26.712Z,8.29
2019-03-28T05:45:02.266Z,8.26
2019-03-28T05:47:37.742Z,8.24
2019-03-28T05:50:11.584Z,8.26
2019-03-28T05:52:46.724Z,8.24
2019-03-28T05:55:22.279Z,8.17
2019-03-28T05:57:57.667Z,8.27
2019-03-28T06:00:32.943Z,8.30
2019-03-28T06:03:08.352Z,8.37
2019-03-28T06:05:43.713Z,8.37
2019-03-28T06:08:19.292Z,8.40
2019-03-28T06:10:54.664Z,8.45
2019-03-28T06:13:29.957Z,8.44
2019-03-28T06:16:45.693Z,8.40
2019-03-28T06:19:21.355Z,8.40
2019-03-28T06:21:56.690Z,8.39
2019-03-28T06:24:31.928Z,8.34
2019-03-28T06:27:07.555Z,8.33
2019-03-28T06:29:43.282Z,8.29
2019-03-28T06:32:18.804Z,8.27
2019-03-28T06:34:54.281Z,8.35
2019-03-28T06:37:29.694Z,8.33
2019-03-28T06:40:05.651Z,8.37
2019-03-28T06:42:41.279Z,8.37
2019-03-28T06:45:16.703Z,8.41
2019-03-28T06:47:52.282Z,8.46
2019-03-28T06:50:27.710Z,8.41
2019-03-28T06:53:03.273Z,8.47
2019-03-28T06:55:38.703Z,8.46
2019-03-28T06:58:14.281Z,8.49
2019-03-28T07:00:49.706Z,8.49
2019-03-28T07:03:25.275Z,8.46
2019-03-28T07:06:00.749Z,8.47
2019-03-28T07:08:36.292Z,8.51
2019-03-28T07:11:11.716Z,8.51
2019-03-28T07:13:47.273Z,8.51
2019-03-28T07:16:22.681Z,8.47
2019-03-28T07:18:58.280Z,8.48
2019-03-28T07:21:33.718Z,8.54
2019-03-28T07:24:09.282Z,8.54
2019-03-28T07:26:44.711Z,8.52
2019-03-28T07:29:20.282Z,8.53
2019-03-28T07:31:55.684Z,8.53
2019-03-28T07:34:31.278Z,8.55
2019-03-28T07:37:06.718Z,8.52
2019-03-28T07:39:42.350Z,8.53
2019-03-28T07:42:17.699Z,8.58
2019-03-28T07:44:53.533Z,8.62
2019-03-28T07:47:28.883Z,8.66
2019-03-28T07:50:05.281Z,8.63
2019-03-28T07:52:40.943Z,8.71
2019-03-28T07:55:16.810Z,8.71
2019-03-28T07:57:52.374Z,8.77
2019-03-28T08:00:27.891Z,8.77
2019-03-28T08:03:03.276Z,8.80
2019-03-28T08:05:38.888Z,8.82
2019-03-28T08:08:12.602Z,8.87
2019-03-28T08:10:47.706Z,8.85
2019-03-28T08:13:23.273Z,8.88
2019-03-28T08:15:59.279Z,8.88
2019-03-28T08:18:34.746Z,8.87
2019-03-28T08:21:08.584Z,8.94
2019-03-28T08:23:43.893Z,8.89
2019-03-28T08:26:19.236Z,8.94
2019-03-28T08:28:54.735Z,8.91
2019-03-28T08:31:30.286Z,8.96
2019-03-28T08:34:05.883Z,9.11
2019-03-28T08:36:40.285Z,9.11
2019-03-28T08:39:15.632Z,9.07
2019-03-28T08:41:51.279Z,9.07
2019-03-28T08:44:27.783Z,9.07
2019-03-28T08:47:06.064Z,9.10
2019-03-28T08:49:40.287Z,9.15
2019-03-28T08:52:16.713Z,9.21
2019-03-28T08:54:52.286Z,9.26
2019-03-28T08:57:27.679Z,9.29
2019-03-28T09:00:01.634Z,9.28
2019-03-28T09:02:38.753Z,9.31
2019-03-28T09:05:14.307Z,9.39
2019-03-28T09:07:49.702Z,9.39
2019-03-28T09:10:23.637Z,9.48
2019-03-28T09:12:59.113Z,9.53
2019-03-28T09:15:43.790Z,9.56
2019-03-28T09:18:11.889Z,9.63
2019-03-28T09:20:47.282Z,9.61
2019-03-28T09:23:22.744Z,9.61
2019-03-28T09:25:58.290Z,9.60
2019-03-28T09:28:33.744Z,9.64
2019-03-28T09:31:19.372Z,9.67
2019-03-28T09:33:45.291Z,9.74
2019-03-28T09:36:20.731Z,9.74
2019-03-28T09:38:54.625Z,9.80
2019-03-28T09:41:31.289Z,9.74
2019-03-28T09:44:06.733Z,9.76
2019-03-28T09:46:40.659Z,9.74
2019-03-28T09:49:15.912Z,9.74
2019-03-28T09:51:51.369Z,9.69
2019-03-28T09:54:26.724Z,9.83
2019-03-28T09:57:02.290Z,9.89
2019-03-28T09:59:37.721Z,9.90
2019-03-28T10:02:13.391Z,9.93
2019-03-28T10:04:48.914Z,9.95
2019-03-28T10:07:24.291Z,10.00
2019-03-28T10:10:00.499Z,10.02
2019-03-28T10:12:35.933Z,10.01
2019-03-28T10:15:11.888Z,9.97
2019-03-28T10:17:47.294Z,9.97
2019-03-28T10:20:22.704Z,9.95
2019-03-28T10:22:58.287Z,9.97
2019-03-28T10:25:34.730Z,9.97
2019-03-28T10:28:08.605Z,9.94
2019-03-28T10:30:45.892Z,9.93
2019-03-28T10:33:21.765Z,10.03
2019-03-28T10:35:56.633Z,10.03
2019-03-28T10:38:32.297Z,10.01
2019-03-28T10:41:08.296Z,10.08
2019-03-28T10:43:44.286Z,10.08
2019-03-28T10:46:19.741Z,9.99
2019-03-28T10:48:54.577Z,10.00
2019-03-28T10:51:29.894Z,10.06
2019-03-28T10:54:03.639Z,10.06
2019-03-28T10:56:51.063Z,10.11
2019-03-28T10:59:23.188Z,10.16
2019-03-28T11:01:53.286Z,10.12
2019-03-28T11:04:28.725Z,10.08
2019-03-28T11:07:02.593Z,10.12
2019-03-28T11:09:37.738Z,10.19
2019-03-28T11:12:13.283Z,10.29
2019-03-28T11:14:48.964Z,10.29
2019-03-28T11:17:25.132Z,10.50
2019-03-28T11:20:00.694Z,10.48
2019-03-28T11:22:34.474Z,10.46
2019-03-28T11:25:10.291Z,10.46
2019-03-28T11:27:45.720Z,10.47
2019-03-28T11:30:19.837Z,10.47
2019-03-28T11:32:55.293Z,10.41
2019-03-28T11:35:30.766Z,10.40
2019-03-28T11:40:28.010Z,10.44
2019-03-28T11:43:03.370Z,10.42
2019-03-28T11:45:38.955Z,10.42
2019-03-28T11:48:14.293Z,10.44
2019-03-28T11:50:49.739Z,10.47
2019-03-28T11:53:23.622Z,10.41
2019-03-28T11:55:58.969Z,10.39
2019-03-28T11:58:34.514Z,10.36
2019-03-28T12:01:35.470Z,10.37
2019-03-28T12:04:13.300Z,10.37
2019-03-28T12:06:49.179Z,10.41
2019-03-28T12:09:25.363Z,10.49
2019-03-28T12:12:00.704Z,10.49
2019-03-28T12:14:36.286Z,10.51
2019-03-28T12:17:11.716Z,10.56
2019-03-28T12:19:47.286Z,10.57
2019-03-28T12:22:23.287Z,10.51
2019-03-28T12:24:58.734Z,10.49
2019-03-28T12:27:32.805Z,10.46
2019-03-28T12:30:09.366Z,10.44
2019-03-28T12:32:44.742Z,10.38
2019-03-28T12:35:20.297Z,10.36
2019-03-28T12:37:55.708Z,10.43
2019-03-28T12:43:00.971Z,10.56
2019-03-28T12:45:36.345Z,10.49
2019-03-28T12:48:11.947Z,10.49
2019-03-28T12:50:58.259Z,10.48
2019-03-28T12:53:24.400Z,10.53
2019-03-28T12:55:59.750Z,10.53
2019-03-28T12:58:36.291Z,10.61
2019-03-28T13:01:11.723Z,10.61
2019-03-28T13:03:48.347Z,10.58
2019-03-28T13:06:24.265Z,10.57
2019-03-28T13:08:59.702Z,10.57
2019-03-28T13:11:34.956Z,10.68
2019-03-28T13:14:48.606Z,10.65
2019-03-28T13:17:23.956Z,10.60
2019-03-28T13:19:57.681Z,10.68
2019-03-28T13:22:32.954Z,10.74
2019-03-28T13:25:08.745Z,10.80
2019-03-28T13:27:42.557Z,10.77
2019-03-28T13:30:18.420Z,10.75
2019-03-28T13:32:53.653Z,10.77
2019-03-28T13:35:29.286Z,10.71
2019-03-28T13:38:04.722Z,10.74
2019-03-28T13:40:39.889Z,10.80
2019-03-28T13:43:15.252Z,10.82
2019-03-28T13:45:50.665Z,10.83
2019-03-28T13:48:25.876Z,10.89
2019-03-28T13:51:01.126Z,10.88
2019-03-28T13:53:39.697Z,10.96
2019-03-28T13:56:13.646Z,11.12
2019-03-28T13:59:11.697Z,11.17
2019-03-28T14:01:47.256Z,11.15
2019-03-28T14:04:22.743Z,11.15
2019-03-28T14:06:58.262Z,11.08
2019-03-28T14:09:33.689Z,11.12
2019-03-28T14:12:08.953Z,11.16
2019-03-28T14:14:44.273Z,11.24
2019-03-28T14:17:20.668Z,11.22
2019-03-28T14:19:57.309Z,11.19
2019-03-28T14:22:32.711Z,11.14
2019-03-28T14:25:08.542Z,11.11
2019-03-28T14:27:44.927Z,11.11
2019-03-28T14:30:20.690Z,11.14
2019-03-28T14:33:10.141Z,11.17
2019-03-28T14:35:33.281Z,11.19
2019-03-28T14:38:08.716Z,11.18
2019-03-28T14:40:42.550Z,11.20
2019-03-28T14:43:17.719Z,11.14
2019-03-28T14:45:52.946Z,11.08
2019-03-28T14:48:28.271Z,11.11
2019-03-28T14:51:03.940Z,11.02
2019-03-28T14:53:37.587Z,11.06
2019-03-28T14:56:12.881Z,11.06
2019-03-28T14:58:47.574Z,11.02
2019-03-28T15:01:22.692Z,11.04
2019-03-28T15:03:58.265Z,10.99
2019-03-28T15:06:33.677Z,10.94
2019-03-28T15:09:09.868Z,10.92
2019-03-28T15:11:43.609Z,10.92
2019-03-28T15:14:18.669Z,10.89
2019-03-28T15:16:53.934Z,10.84
2019-03-28T15:19:29.639Z,10.84
2019-03-28T15:22:04.933Z,10.87
2019-03-28T15:24:40.340Z,10.88
2019-03-28T15:27:15.696Z,10.88
2019-03-28T15:29:51.269Z,10.89
2019-03-28T15:32:26.694Z,10.92
2019-03-28T15:35:02.269Z,10.91
2019-03-28T15:37:37.742Z,10.91
2019-03-28T15:40:13.669Z,10.85
2019-03-28T15:42:49.243Z,10.87
2019-03-28T15:45:24.681Z,10.88
2019-03-28T15:48:00.276Z,10.85
2019-03-28T15:50:35.714Z,10.83
2019-03-28T15:53:09.577Z,10.81
2019-03-28T15:55:44.944Z,10.81
2019-03-28T15:58:23.528Z,10.75
2019-03-28T16:01:20.667Z,10.80
2019-03-28T16:03:56.255Z,10.82
2019-03-28T16:06:31.682Z,10.82
2019-03-28T16:09:08.303Z,10.77
2019-03-28T16:11:43.715Z,10.82
2019-03-28T16:14:17.579Z,10.86
2019-03-28T16:16:52.877Z,10.86
2019-03-28T16:19:26.596Z,10.79
2019-03-28T16:22:04.220Z,10.81
2019-03-28T16:24:38.946Z,10.81
2019-03-28T16:27:14.322Z,10.83
2019-03-28T16:29:50.294Z,10.81
2019-03-28T16:32:25.906Z,10.80
2019-03-28T16:34:59.896Z,10.82
2019-03-28T16:37:33.609Z,10.84
2019-03-28T16:40:11.335Z,10.89
2019-03-28T16:42:46.674Z,10.90
2019-03-28T16:45:22.275Z,10.85
2019-03-28T16:47:57.667Z,10.84
2019-03-28T16:50:34.037Z,10.82
2019-03-28T16:53:09.887Z,10.80
2019-03-28T16:57:34.563Z,10.79
2019-03-28T17:00:15.666Z,10.77
2019-03-28T17:02:51.277Z,10.77
2019-03-28T17:06:49.270Z,10.82
2019-03-28T17:09:25.942Z,10.82
2019-03-28T17:11:59.611Z,10.83
2019-03-28T17:14:34.880Z,10.84
2019-03-28T17:17:08.828Z,10.83
2019-03-28T17:19:44.274Z,10.86
2019-03-28T17:22:19.670Z,10.87
2019-03-28T17:24:55.275Z,10.90
2019-03-28T17:27:30.658Z,10.89
2019-03-28T17:30:07.376Z,10.95
2019-03-28T17:32:42.871Z,10.89
2019-03-28T17:35:17.273Z,10.90
2019-03-28T17:37:52.309Z,10.92
2019-03-28T17:40:27.719Z,10.92
2019-03-28T17:43:01.579Z,10.96
2019-03-28T17:45:36.862Z,10.99
2019-03-28T17:48:12.274Z,11.02
2019-03-28T17:50:47.676Z,11.00
2019-03-28T17:53:24.160Z,10.95
2019-03-28T17:56:00.461Z,10.89
2019-03-28T17:58:36.264Z,10.93
2019-03-28T18:01:12.389Z,10.95
2019-03-28T18:03:48.106Z,10.99
2019-03-28T18:06:23.663Z,10.95
2019-03-28T18:08:59.307Z,10.95
2019-03-28T18:11:34.899Z,10.87
2019-03-28T18:14:10.339Z,10.85
2019-03-28T18:16:45.674Z,10.81
2019-03-28T18:19:21.293Z,10.80
2019-03-28T18:22:03.209Z,10.76
2019-03-28T18:24:33.677Z,10.72
2019-03-28T18:27:09.277Z,10.72
2019-03-28T18:29:44.697Z,10.74
2019-03-28T18:32:20.276Z,10.74
2019-03-28T18:35:05.285Z,10.71
2019-03-28T18:37:32.708Z,10.71
2019-03-28T18:40:08.301Z,10.75
2019-03-28T18:42:43.902Z,10.75
2019-03-28T18:45:20.277Z,10.78
2019-03-28T18:47:56.269Z,10.76
2019-03-28T18:50:31.733Z,10.72
2019-03-28T18:53:07.269Z,10.71
2019-03-28T18:55:43.280Z,10.75
2019-03-28T18:58:18.977Z,10.74
2019-03-28T19:00:54.309Z,10.79
2019-03-28T19:03:30.334Z,10.80
2019-03-28T19:06:06.950Z,10.81
2019-03-28T19:08:42.417Z,10.83
2019-03-28T19:11:17.913Z,10.83
2019-03-28T19:13:56.427Z,10.78
2019-03-28T19:16:32.287Z,10.78
2019-03-28T19:19:07.720Z,10.82
2019-03-28T19:21:41.692Z,10.84
2019-03-28T19:24:17.261Z,10.87
2019-03-28T19:26:52.953Z,10.83
2019-03-28T19:29:28.558Z,10.89
2019-03-28T19:32:03.840Z,10.95
2019-03-28T19:34:37.584Z,10.91
2019-03-28T19:37:13.683Z,10.91
2019-03-28T19:39:49.288Z,10.94
2019-03-28T19:42:24.946Z,10.94
2019-03-28T19:45:00.730Z,10.92
2019-03-28T19:47:37.283Z,10.92
2019-03-28T19:50:17.657Z,10.98
2019-03-28T19:55:31.685Z,11.24
2019-03-28T19:58:07.290Z,11.24
2019-03-28T20:00:43.862Z,11.23
2019-03-28T20:03:23.143Z,11.23
2019-03-28T20:05:57.710Z,11.19
2019-03-28T20:08:33.293Z,11.19
2019-03-28T20:11:08.725Z,11.14
2019-03-28T20:14:07.682Z,11.16
2019-03-28T20:16:43.282Z,11.09
2019-03-28T20:19:18.667Z,11.03
2019-03-28T20:21:54.286Z,11.01
2019-03-28T20:24:29.719Z,11.01
2019-03-28T20:27:05.293Z,10.93
2019-03-28T20:29:40.776Z,10.95
2019-03-28T20:32:17.039Z,10.94
2019-03-28T20:34:52.724Z,10.96
2019-03-28T20:37:29.295Z,10.91
2019-03-28T20:40:04.694Z,10.94
2019-03-28T20:42:42.584Z,10.91
2019-03-28T20:45:18.713Z,10.92
2019-03-28T20:47:52.655Z,10.93
2019-03-28T20:50:31.743Z,10.89
2019-03-28T20:53:06.758Z,10.98
2019-03-28T20:55:42.283Z,10.98
2019-03-28T20:58:17.959Z,11.00
2019-03-28T21:00:53.587Z,11.00
2019-03-28T21:03:29.296Z,11.00
2019-03-28T21:06:15.214Z,11.03
2019-03-28T21:08:42.805Z,11.03
2019-03-28T21:11:18.298Z,11.04
2019-03-28T21:13:53.795Z,11.01
2019-03-28T21:16:29.294Z,10.98
2019-03-28T21:19:04.702Z,10.94
2019-03-28T21:21:40.297Z,10.94
2019-03-28T21:24:15.726Z,10.94
2019-03-28T21:26:51.289Z,10.89
2019-03-28T21:29:26.719Z,10.93
2019-03-28T21:32:02.291Z,10.92
2019-03-28T21:34:37.732Z,10.98
2019-03-28T21:37:13.378Z,10.99
2019-03-28T21:39:48.916Z,11.02
2019-03-28T21:42:25.868Z,10.99
2019-03-28T21:45:01.284Z,11.00
2019-03-28T21:47:36.675Z,10.93
2019-03-28T21:50:12.501Z,10.96
2019-03-28T21:52:48.149Z,11.01
2019-03-28T21:55:23.703Z,11.04
2019-03-28T21:57:59.283Z,11.06
2019-03-28T22:00:34.724Z,11.06
2019-03-28T22:03:10.201Z,11.06
2019-03-28T22:05:45.672Z,11.10
2019-03-28T22:08:22.290Z,11.10
2019-03-28T22:10:57.957Z,11.10
2019-03-28T22:13:33.296Z,11.12
2019-03-28T22:16:08.680Z,11.04
2019-03-28T22:18:44.282Z,11.02
2019-03-28T22:21:19.945Z,11.05
2019-03-28T22:23:55.342Z,11.05
2019-03-28T22:26:31.060Z,11.08
2019-03-28T22:29:06.661Z,11.07
2019-03-28T22:31:42.295Z,11.07
2019-03-28T22:34:17.676Z,11.08
2019-03-28T22:36:57.448Z,11.06
2019-03-28T22:39:48.651Z,11.05
2019-03-28T22:42:27.285Z,11.05
2019-03-28T22:45:02.695Z,11.06
2019-03-28T22:47:38.294Z,11.03
2019-03-28T22:50:14.322Z,11.05
2019-03-28T22:52:49.696Z,11.08
2019-03-28T22:55:26.276Z,10.99
2019-03-28T22:58:01.588Z,10.92
2019-03-28T23:00:47.587Z,10.94
2019-03-28T23:03:24.878Z,10.92
2019-03-28T23:05:58.598Z,10.90
2019-03-28T23:08:34.728Z,10.93
2019-03-28T23:11:10.289Z,10.88
2019-03-28T23:13:45.679Z,10.94
2019-03-28T23:17:44.724Z,11.03
2019-03-28T23:20:20.255Z,11.03
2019-03-28T23:22:55.785Z,11.05
2019-03-28T23:25:31.286Z,11.04
2019-03-28T23:28:06.777Z,11.03
2019-03-28T23:30:42.336Z,11.02
2019-03-28T23:33:17.732Z,11.02
2019-03-28T23:35:51.619Z,10.97
2019-03-28T23:38:27.077Z,10.98
2019-03-28T23:41:02.671Z,10.86
2019-03-28T23:43:38.273Z,10.86
2019-03-28T23:46:13.663Z,10.82
2019-03-28T23:48:49.273Z,10.82
2019-03-28T23:51:24.895Z,10.82
2019-03-28T23:54:00.942Z,10.84
2019-03-28T23:56:37.055Z,10.84
2019-03-28T23:59:13.297Z,10.84
